Погода Очосондьюпана 2 недели

Очикото, Намибия

23 июня-06 июля
  • 23июня
    Сегодня
    +5°
    +24°
    Ясно и безоблачно
    ВремяПогодаТемператураВлажностьДавлениеВетер, м/сВероятность осадков
    02:00Ясно и безоблачно+9°C51 %655 мм2.5 м/с5 %
    05:00Ясно и безоблачно+7°C58 %654 мм2.6 м/с5 %
    08:00Ясно и безоблачно+6°C60 %655 мм2.2 м/с5 %
    11:00Ясно и безоблачно+19°C32 %659 мм4.8 м/с5 %
    14:00Ясно и безоблачно+23°C18 %658 мм5.7 м/с5 %
    17:00Ясно и безоблачно+23°C20 %657 мм3.9 м/с5 %
    20:00Ясно и безоблачно+13°C33 %655 мм2.7 м/с5 %
    23:00Ясно и безоблачно+11°C41 %656 мм2.7 м/с5 %
  • 24июня
    Понедельник
    +6°
    +25°
    Ясно и безоблачно
    ВремяПогодаТемператураВлажностьДавлениеВетер, м/сВероятность осадков
    02:00Ясно и безоблачно+8°C53 %655 мм2.6 м/с5 %
    05:00Ясно и безоблачно+6°C56 %654 мм2.5 м/с5 %
    08:00Ясно и безоблачно+6°C54 %656 мм2.2 м/с5 %
    11:00Ясно и безоблачно+18°C41 %660 мм4.0 м/с5 %
    14:00Ясно и безоблачно+23°C29 %658 мм4.3 м/с5 %
    17:00Ясно и безоблачно+24°C27 %658 мм3.5 м/с5 %
    20:00Ясно и безоблачно+15°C41 %656 мм2.5 м/с5 %
    23:00Ясно и безоблачно+13°C48 %656 мм3.2 м/с5 %
  • 25июня
    Вторник
    +6°
    +24°
    Небольшая облачность
    ВремяПогодаТемператураВлажностьДавлениеВетер, м/сВероятность осадков
    02:00Практически безоблачно+10°C58 %656 мм3.0 м/с4 %
    05:00Небольшая облачность+9°C65 %655 мм2.9 м/с4 %
    08:00Небольшая облачность+7°C67 %656 мм2.5 м/с4 %
    11:00Небольшая облачность+19°C39 %660 мм4.4 м/с4 %
    14:00Небольшая облачность+23°C27 %658 мм5.2 м/с4 %
    17:00Ясно и безоблачно+23°C26 %657 мм4.9 м/с4 %
    20:00Ясно и безоблачно+16°C37 %656 мм3.7 м/с4 %
    23:00Ясно и безоблачно+12°C49 %656 мм3.8 м/с4 %
  • 26июня
    Среда
    +7°
    +24°
    Ясно и безоблачно
    ВремяПогодаТемператураВлажностьДавлениеВетер, м/сВероятность осадков
    02:00Ясно и безоблачно+10°C58 %655 мм3.0 м/с4 %
    05:00Ясно и безоблачно+8°C65 %654 мм2.8 м/с4 %
    08:00Ясно и безоблачно+7°C70 %655 мм2.4 м/с4 %
    11:00Ясно и безоблачно+19°C42 %659 мм5.4 м/с4 %
    14:00Ясно и безоблачно+23°C32 %657 мм6.4 м/с4 %
    17:00Ясно и безоблачно+24°C31 %656 мм5.4 м/с4 %
    20:00Ясно и безоблачно+16°C42 %655 мм2.8 м/с4 %
    23:00Ясно и безоблачно+12°C45 %655 мм3.7 м/с4 %
  • 27июня
    Четверг
    +7°
    +25°
    Ясно и безоблачно
    ВремяПогодаТемператураВлажностьДавлениеВетер, м/сВероятность осадков
    02:00Ясно и безоблачно+10°C52 %655 мм2.6 м/с4 %
    05:00Ясно и безоблачно+8°C58 %654 мм2.3 м/с4 %
    08:00Ясно и безоблачно+8°C62 %655 мм2.7 м/с4 %
    11:00Ясно и безоблачно+19°C41 %659 мм5.8 м/с4 %
    14:00Ясно и безоблачно+24°C29 %658 мм6.2 м/с4 %
    17:00Ясно и безоблачно+24°C26 %657 мм4.4 м/с4 %
    20:00Ясно и безоблачно+16°C37 %655 мм2.8 м/с4 %
    23:00Ясно и безоблачно+12°C45 %655 мм2.5 м/с4 %
Мы используем cookies
Соглашаюсь